Time;durP1;ratioP1;P1;durP2;ratioP2;P2;SDS_P1;SDS_P2;PMS_P1;PMS_P2;Temp;Humidity;BMP_temperature;BMP_pressure;BME280_temperature;BME280_humidity;BME280_pressure;Samples;Min_cycle;Max_cycle;Signal;HPM_P1;HPM_P2
2021/01/14 00:02:37;;;;;;;10.27;1.80;;;;;;;-0.17;84.49;101064.09;6298309;28;20056;-78
2021/01/14 00:05:38;;;;;;;12.63;1.83;;;;;;;-0.14;85.10;101069.22;6298207;28;20056;-77
2021/01/14 00:08:39;;;;;;;10.20;2.58;;;;;;;-0.21;86.94;101077.88;6297415;28;20048;-78
2021/01/14 00:11:45;;;;;;;13.90;1.88;;;;;;;-0.23;86.54;101071.84;6297628;28;20060;-77
2021/01/14 00:14:46;;;;;;;9.93;1.80;;;;;;;-0.03;85.49;101082.13;6298139;28;20052;-77
2021/01/14 00:17:47;;;;;;;12.50;2.00;;;;;;;-0.05;85.54;101094.16;6297100;28;20045;-77
2021/01/14 00:20:48;;;;;;;14.35;2.00;;;;;;;0.08;84.95;101098.41;6297434;28;20056;-77
2021/01/14 00:23:49;;;;;;;8.38;1.88;;;;;;;-0.04;86.55;101090.75;6297297;28;20051;-77
2021/01/14 00:26:50;;;;;;;7.55;1.98;;;;;;;-0.11;85.50;101105.38;6296806;28;20122;-78
2021/01/14 00:29:52;;;;;;;8.07;2.28;;;;;;;-0.07;85.08;101107.09;6296567;28;20088;-78
2021/01/14 00:32:53;;;;;;;7.72;2.90;;;;;;;-0.14;84.96;101115.72;6297686;28;20060;-77
2021/01/14 00:35:54;;;;;;;6.78;1.48;;;;;;;-0.14;86.37;101123.47;6296801;28;20390;-77
2021/01/14 00:38:54;;;;;;;7.68;2.05;;;;;;;-0.07;85.08;101120.00;6296873;28;20056;-78
2021/01/14 00:41:56;;;;;;;14.02;2.17;;;;;;;-0.12;86.04;101123.47;6297232;28;20080;-77
2021/01/14 00:44:57;;;;;;;4.70;1.40;;;;;;;-0.11;85.74;101127.78;6297168;28;20489;-77
2021/01/14 00:47:59;;;;;;;8.57;1.70;;;;;;;-0.04;86.04;101121.75;6296653;28;20048;-77
2021/01/14 00:51:00;;;;;;;8.15;1.65;;;;;;;-0.09;85.54;101142.41;6296671;28;20055;-77
2021/01/14 00:54:01;;;;;;;10.25;1.55;;;;;;;0.07;84.71;101135.47;6296977;28;20485;-77
2021/01/14 00:57:02;;;;;;;8.68;1.65;;;;;;;0.03;84.81;101143.22;6296362;28;20460;-77
2021/01/14 01:00:07;;;;;;;7.88;1.42;;;;;;;0.00;83.77;101136.38;6296508;28;20102;-77
2021/01/14 01:03:08;;;;;;;5.35;1.52;;;;;;;0.03;83.57;101149.25;6296664;28;20060;-77
2021/01/14 01:06:09;;;;;;;6.50;1.85;;;;;;;-0.05;84.40;101130.31;6296052;28;20048;-77
2021/01/14 01:09:11;;;;;;;7.95;1.55;;;;;;;-0.01;83.74;101140.66;6296139;28;20060;-77
2021/01/14 01:12:12;;;;;;;7.68;1.88;;;;;;;-0.08;83.44;101143.28;6296723;28;20067;-77
2021/01/14 01:15:14;;;;;;;6.70;1.60;;;;;;;-0.03;83.43;101142.38;6296580;28;20048;-77
2021/01/14 01:18:14;;;;;;;10.20;2.50;;;;;;;-0.08;83.21;101131.22;6295999;28;20048;-78
2021/01/14 01:21:15;;;;;;;5.68;1.50;;;;;;;0.02;81.97;101131.19;6296240;28;20193;-77
2021/01/14 01:24:16;;;;;;;3.38;1.10;;;;;;;-0.07;83.53;101158.75;6296245;28;20054;-77
2021/01/14 01:27:17;;;;;;;6.63;1.60;;;;;;;-0.12;83.88;101164.81;6295987;28;20504;-77
2021/01/14 01:30:20;;;;;;;4.55;1.58;;;;;;;-0.17;83.62;101171.72;6295818;28;20061;-77
2021/01/14 01:33:20;;;;;;;6.30;1.42;;;;;;;-0.11;83.50;101166.53;6296230;28;20048;-77
2021/01/14 01:36:21;;;;;;;11.65;1.77;;;;;;;0.03;82.83;101174.22;6295857;28;20056;-77
2021/01/14 01:39:22;;;;;;;9.73;1.80;;;;;;;-0.01;83.30;101176.81;6294822;28;20044;-77
2021/01/14 01:42:23;;;;;;;10.40;1.40;;;;;;;0.01;84.14;101187.16;6296161;28;20051;-77
2021/01/14 01:45:25;;;;;;;4.30;1.55;;;;;;;-0.01;84.56;101194.91;6295998;28;20178;-77
2021/01/14 01:48:26;;;;;;;6.60;1.05;;;;;;;0.05;81.78;101193.19;6295653;28;20048;-77
2021/01/14 01:51:34;;;;;;;5.68;1.58;;;;;;;0.04;82.93;101194.03;6295555;28;20057;-77
2021/01/14 01:54:35;;;;;;;4.95;1.33;;;;;;;0.02;82.93;101196.63;6295942;28;20327;-77
2021/01/14 01:57:36;;;;;;;5.90;1.63;;;;;;;-0.04;82.98;101189.75;6295497;28;20051;-77
2021/01/14 02:00:38;;;;;;;13.48;1.77;;;;;;;0.11;82.91;101206.94;6295279;28;20078;-77
2021/01/14 02:03:39;;;;;;;5.82;1.25;;;;;;;0.07;83.41;101200.06;6295856;28;20102;-77
2021/01/14 02:06:46;;;;;;;6.95;1.60;;;;;;;0.18;81.74;101202.59;6295599;28;20420;-77
2021/01/14 02:09:53;;;;;;;7.30;3.17;;;;;;;0.25;81.42;101207.75;6295440;28;20052;-77
2021/01/14 02:13:01;;;;;;;8.98;1.17;;;;;;;0.20;81.37;101213.81;6295897;28;20052;-78
2021/01/14 02:16:05;;;;;;;5.10;1.33;;;;;;;0.09;83.22;101216.44;6295216;28;20499;-77
2021/01/14 02:19:13;;;;;;;10.98;1.50;;;;;;;0.05;83.22;101219.03;6295108;28;20406;-78
2021/01/14 02:22:17;;;;;;;6.03;1.73;;;;;;;0.05;82.73;101221.59;6295605;28;20413;-78
2021/01/14 02:25:23;;;;;;;6.15;1.58;;;;;;;0.01;83.21;101231.09;6295611;28;20479;-78
2021/01/14 02:28:26;;;;;;;4.10;1.30;;;;;;;0.12;83.41;101233.63;6317737;22;20417;-74
2021/01/14 02:31:27;;;;;;;5.57;1.83;;;;;;;0.13;83.47;101235.34;6294858;28;20536;-73
2021/01/14 02:34:28;;;;;;;10.88;1.77;;;;;;;0.18;82.63;101231.91;6295731;28;20075;-73
2021/01/14 02:37:29;;;;;;;8.38;1.88;;;;;;;0.16;84.40;101246.53;6295011;28;20040;-74
2021/01/14 02:40:30;;;;;;;10.18;1.58;;;;;;;0.23;83.45;101250.84;6295225;28;20048;-73
2021/01/14 02:43:32;;;;;;;7.65;1.65;;;;;;;0.16;84.10;101245.69;6295451;28;20051;-74
2021/01/14 02:46:33;;;;;;;9.70;1.67;;;;;;;0.17;83.54;101249.97;6294806;28;20056;-74
2021/01/14 02:49:39;;;;;;;6.10;1.60;;;;;;;0.32;82.84;101239.63;6295062;28;20041;-75
2021/01/14 02:52:42;;;;;;;7.85;1.67;;;;;;;0.22;83.44;101254.25;6298811;28;20459;-74
2021/01/14 02:55:44;;;;;;;6.25;1.58;;;;;;;0.27;83.45;101264.59;6299822;28;20497;-73
2021/01/14 02:58:46;;;;;;;7.57;1.90;;;;;;;0.16;83.65;101279.28;6298460;28;20421;-73
2021/01/14 03:01:48;;;;;;;8.48;2.17;;;;;;;0.12;84.62;101280.16;6299629;28;20410;-74
2021/01/14 03:04:48;;;;;;;7.68;1.67;;;;;;;0.19;84.38;101282.72;6299135;28;20056;-74
2021/01/14 03:07:49;;;;;;;6.47;1.67;;;;;;;0.21;84.25;101282.72;6299271;28;20444;-73
2021/01/14 03:10:50;;;;;;;8.88;1.90;;;;;;;0.19;84.36;101282.72;6299008;28;20055;-74
2021/01/14 03:13:52;;;;;;;4.00;1.75;;;;;;;0.07;84.62;101287.03;6299627;28;20463;-74
2021/01/14 03:16:53;;;;;;;8.35;1.65;;;;;;;0.16;85.19;101282.72;6298845;28;20098;-73
2021/01/14 03:19:55;;;;;;;10.15;1.98;;;;;;;0.34;82.15;101289.56;6298724;28;20165;-73
2021/01/14 03:22:56;;;;;;;7.03;2.03;;;;;;;0.50;82.03;101293.00;6299141;28;20417;-76
2021/01/14 03:25:57;;;;;;;9.55;1.90;;;;;;;0.20;83.46;101299.94;6298490;28;20049;-73
2021/01/14 03:28:58;;;;;;;9.75;2.33;;;;;;;0.36;82.64;101302.47;6298484;28;20131;-74
2021/01/14 03:32:00;;;;;;;14.95;2.40;;;;;;;0.36;82.73;101312.81;6298957;28;20052;-73
2021/01/14 03:35:01;;;;;;;9.55;2.30;;;;;;;0.36;82.09;101305.06;6299089;28;20051;-74
2021/01/14 03:38:02;;;;;;;10.80;2.58;;;;;;;0.41;82.90;101311.09;6298340;28;20110;-74
2021/01/14 03:41:08;;;;;;;7.93;2.00;;;;;;;0.41;82.14;101308.50;6298503;28;20049;-74
2021/01/14 03:44:10;;;;;;;8.65;2.13;;;;;;;0.41;82.26;101319.72;6298822;28;20049;-73
2021/01/14 03:47:11;;;;;;;6.35;1.92;;;;;;;0.27;84.32;101328.34;6298009;28;20094;-73
2021/01/14 03:50:12;;;;;;;11.70;2.38;;;;;;;0.23;84.43;101335.28;6298399;28;20458;-73
2021/01/14 03:53:13;;;;;;;6.50;2.35;;;;;;;0.37;83.80;101337.84;6298001;28;20485;-74
2021/01/14 03:56:14;;;;;;;11.00;3.03;;;;;;;0.22;85.95;101338.69;6298360;28;20048;-74
2021/01/14 03:59:16;;;;;;;8.48;3.25;;;;;;;0.34;84.05;101345.59;6297718;28;20068;-74
2021/01/14 04:02:16;;;;;;;6.30;2.22;;;;;;;0.43;83.52;101348.16;6297162;28;20055;-74
2021/01/14 04:05:17;;;;;;;8.73;2.70;;;;;;;0.38;83.27;101350.75;6298017;28;20409;-74
2021/01/14 04:08:18;;;;;;;12.38;2.92;;;;;;;0.32;83.54;101355.03;6297700;28;20072;-73
2021/01/14 04:11:19;;;;;;;12.02;3.35;;;;;;;0.30;84.78;101360.22;6297630;28;20055;-73
2021/01/14 04:14:20;;;;;;;6.53;2.88;;;;;;;0.16;85.05;101357.66;6297869;28;20409;-73
2021/01/14 04:17:21;;;;;;;8.32;2.90;;;;;;;0.14;86.28;101366.28;6297438;28;20525;-73
2021/01/14 04:20:22;;;;;;;9.18;2.72;;;;;;;0.29;85.22;101368.84;6297337;28;20080;-73
2021/01/14 04:23:23;;;;;;;11.80;2.88;;;;;;;0.35;84.28;101373.16;6297836;28;20044;-74
2021/01/14 04:26:24;;;;;;;14.35;2.90;;;;;;;0.37;84.16;101379.19;6297025;28;20052;-74
2021/01/14 04:29:25;;;;;;;6.75;2.97;;;;;;;0.23;86.53;101385.25;6296956;28;20079;-74
2021/01/14 04:32:31;;;;;;;12.05;3.30;;;;;;;0.32;85.72;101379.19;6297581;28;20114;-73
2021/01/14 04:35:32;;;;;;;11.02;4.90;;;;;;;0.34;85.47;101386.94;6297522;28;20056;-74
2021/01/14 04:38:33;;;;;;;7.68;3.10;;;;;;;0.25;86.14;101391.25;6297060;28;20052;-74
2021/01/14 04:41:47;;;;;;;12.23;3.80;;;;;;;0.21;86.68;101399.00;6296918;28;20079;-74
2021/01/14 04:44:48;;;;;;;12.93;3.45;;;;;;;0.31;86.96;101405.03;6288685;28;20079;-73
2021/01/14 04:47:50;;;;;;;9.30;3.15;;;;;;;0.29;86.61;101404.19;6288103;28;20429;-74
2021/01/14 04:50:53;;;;;;;15.80;4.18;;;;;;;0.33;85.98;101413.66;6296598;28;20524;-76
2021/01/14 04:54:01;;;;;;;11.68;3.30;;;;;;;0.31;85.82;101412.78;6296824;28;20433;-74
2021/01/14 04:57:18;;;;;;;8.20;2.78;;;;;;;0.32;86.89;101430.91;6296456;28;20075;-75
2021/01/14 05:00:25;;;;;;;12.18;3.97;;;;;;;0.35;87.44;101425.72;6296453;28;20052;-76
2021/01/14 05:03:27;;;;;;;11.25;3.63;;;;;;;0.36;86.14;101436.91;6291262;28;20055;-76
2021/01/14 05:06:36;;;;;;;10.20;3.53;;;;;;;0.40;86.56;101439.50;6294202;28;20047;-74
2021/01/14 05:09:39;;;;;;;9.60;3.55;;;;;;;0.29;88.95;101450.72;6296166;28;20056;-74
2021/01/14 05:12:41;;;;;;;13.10;4.22;;;;;;;0.37;87.46;101457.59;6296739;28;20051;-74
2021/01/14 05:15:42;;;;;;;12.32;3.67;;;;;;;0.31;87.54;101457.59;6296033;28;20063;-74
2021/01/14 05:18:43;;;;;;;11.55;4.25;;;;;;;0.44;88.20;101468.78;6295548;28;20048;-74
2021/01/14 05:21:45;;;;;;;10.68;4.57;;;;;;;0.45;86.54;101462.75;6296319;28;20525;-74
2021/01/14 05:25:04;;;;;;;9.48;4.15;;;;;;;0.33;87.92;101471.41;6296366;28;20048;-74
2021/01/14 05:28:12;;;;;;;10.80;4.33;;;;;;;0.34;88.55;101470.53;6295797;28;20049;-74
2021/01/14 05:31:15;;;;;;;13.90;4.68;;;;;;;0.20;89.87;101483.44;6296078;28;20052;-74
2021/01/14 05:34:16;;;;;;;12.05;3.80;;;;;;;0.31;89.04;101470.50;6296208;28;20053;-74
2021/01/14 05:37:17;;;;;;;13.68;4.30;;;;;;;0.24;90.70;101484.31;6295747;28;20055;-73
2021/01/14 05:40:23;;;;;;;12.88;4.22;;;;;;;0.20;90.76;101486.03;6295736;28;20048;-73
2021/01/14 05:43:24;;;;;;;18.08;6.13;;;;;;;0.12;91.92;101492.03;6296251;28;20055;-74
2021/01/14 05:46:28;;;;;;;14.57;4.53;;;;;;;0.25;91.09;101491.19;6295666;28;20417;-75
2021/01/14 05:49:29;;;;;;;14.45;5.00;;;;;;;0.10;92.81;101489.47;6295489;28;20048;-74
2021/01/14 05:52:31;;;;;;;10.70;4.95;;;;;;;0.13;93.61;101501.50;6296020;28;20409;-74
2021/01/14 05:55:33;;;;;;;9.30;4.25;;;;;;;0.06;93.76;101500.66;6295946;28;20494;-74
2021/01/14 05:58:36;;;;;;;18.30;4.78;;;;;;;0.25;93.16;101506.72;6295589;28;20048;-74
2021/01/14 06:01:51;;;;;;;11.77;4.65;;;;;;;0.04;94.38;101507.53;6295873;28;20056;-74
2021/01/14 06:04:52;;;;;;;18.77;5.47;;;;;;;0.00;95.01;101505.81;6295892;28;20052;-74
2021/01/14 06:07:54;;;;;;;14.27;5.70;;;;;;;0.10;96.11;101517.88;6295538;28;20072;-74
2021/01/14 06:10:56;;;;;;;12.90;5.70;;;;;;;-0.06;96.45;101524.72;6295400;28;20044;-74
2021/01/14 06:13:57;;;;;;;15.25;5.85;;;;;;;-0.12;96.90;101545.38;6295756;28;20044;-74
2021/01/14 06:17:00;;;;;;;14.20;5.68;;;;;;;-0.10;97.48;101535.91;6295050;28;20552;-74
2021/01/14 06:20:07;;;;;;;15.48;5.57;;;;;;;-0.09;97.00;101536.75;6295222;28;20063;-73
2021/01/14 06:23:09;;;;;;;13.75;5.53;;;;;;;-0.05;97.54;101549.69;6295801;28;20052;-74
2021/01/14 06:26:10;;;;;;;14.43;6.10;;;;;;;-0.09;97.51;101560.91;6296803;28;20492;-74
2021/01/14 06:29:19;;;;;;;14.18;5.45;;;;;;;-0.10;97.69;101569.50;6299910;28;20045;-74
2021/01/14 06:32:21;;;;;;;11.02;5.90;;;;;;;0.01;98.38;101568.69;6300296;28;20048;-76
2021/01/14 06:35:23;;;;;;;10.80;5.43;;;;;;;-0.02;97.39;101572.09;6300399;28;20486;-74
2021/01/14 06:38:40;;;;;;;10.40;5.63;;;;;;;-0.08;98.16;101575.53;6299701;28;20048;-73
2021/01/14 06:41:43;;;;;;;17.75;6.68;;;;;;;-0.08;98.42;101587.59;6300275;28;20052;-74
2021/01/14 06:44:53;;;;;;;14.15;6.47;;;;;;;-0.17;99.39;101591.00;6299998;28;20052;-73
2021/01/14 06:48:03;;;;;;;;;;;;;;;-0.10;98.86;101589.28;6299940;28;20055;-73
2021/01/14 06:51:05;;;;;;;15.23;6.00;;;;;;;-0.13;99.84;101597.06;6299431;28;19924;-73
2021/01/14 06:54:10;;;;;;;21.27;6.50;;;;;;;-0.10;99.09;101602.22;6299933;28;20059;-74
2021/01/14 06:57:15;;;;;;;15.45;5.88;;;;;;;-0.03;98.58;101606.56;6299182;28;20485;-72
2021/01/14 07:00:22;;;;;;;19.00;5.95;;;;;;;-0.01;98.31;101608.28;6299581;28;20045;-74
2021/01/14 07:03:24;;;;;;;18.00;6.57;;;;;;;0.07;97.99;101620.38;6299561;28;20493;-74
2021/01/14 07:06:35;;;;;;;15.90;6.63;;;;;;;-0.02;98.27;101613.44;6299475;28;20049;-73
2021/01/14 07:09:41;;;;;;;17.58;6.57;;;;;;;0.08;96.64;101629.84;6298838;28;20048;-74
2021/01/14 07:12:44;;;;;;;17.75;7.70;;;;;;;-0.02;97.61;101631.53;6299494;28;20048;-74
2021/01/14 07:15:46;;;;;;;14.32;6.40;;;;;;;0.05;97.37;101629.84;6299379;28;20052;-73
2021/01/14 07:18:49;;;;;;;15.35;6.68;;;;;;;0.05;97.51;101642.78;6298393;28;20048;-74
2021/01/14 07:21:53;;;;;;;15.77;7.45;;;;;;;0.10;96.62;101654.84;6299388;28;20094;-72
2021/01/14 07:24:56;;;;;;;21.95;8.15;;;;;;;0.13;97.87;101657.44;6298849;28;20049;-72
2021/01/14 07:27:57;;;;;;;32.95;11.57;;;;;;;0.19;97.06;101659.19;6298302;28;20049;-75
2021/01/14 07:30:58;;;;;;;25.60;9.85;;;;;;;0.13;97.23;101666.91;6298449;28;20052;-73
2021/01/14 07:34:31;;;;;;;18.83;7.13;;;;;;;0.14;97.68;101671.25;6299081;28;20512;-73
2021/01/14 07:37:53;;;;;;;17.90;7.85;;;;;;;0.14;97.83;101682.44;6298471;28;20041;-74
2021/01/14 07:40:54;;;;;;;22.13;10.57;;;;;;;0.18;97.51;101681.59;6298088;28;20140;-73
2021/01/14 07:43:55;;;;;;;24.38;10.27;;;;;;;0.18;95.58;101686.78;6298893;28;20048;-73
2021/01/14 07:46:56;;;;;;;19.60;9.10;;;;;;;0.18;96.31;101691.94;6288089;28;20049;-76
2021/01/14 07:50:00;;;;;;;29.35;10.15;;;;;;;0.16;96.07;101703.09;6282939;28;20068;-74
2021/01/14 07:53:14;;;;;;;20.50;7.32;;;;;;;0.17;96.20;101705.69;6285261;28;20052;-73
2021/01/14 07:56:23;;;;;;;24.75;11.27;;;;;;;0.13;96.67;101703.94;6280334;28;20390;-73
2021/01/14 07:59:28;;;;;;;;;;;;;;;0.29;96.57;101714.38;6292053;28;20468;-72
2021/01/14 08:02:29;;;;;;;22.15;7.45;;;;;;;0.25;95.64;101723.84;6298256;28;20010;-73
2021/01/14 08:05:41;;;;;;;20.30;7.72;;;;;;;0.22;96.39;101726.38;6297968;28;20063;-73
2021/01/14 08:08:42;;;;;;;18.10;7.65;;;;;;;0.35;94.84;101727.31;6297276;28;20052;-72
2021/01/14 08:11:56;;;;;;;21.05;7.85;;;;;;;0.29;94.42;101722.13;6297734;28;20386;-72
2021/01/14 08:14:57;;;;;;;23.98;11.20;;;;;;;0.26;96.17;101730.72;6297809;28;20098;-73
2021/01/14 08:18:10;;;;;;;18.95;7.60;;;;;;;0.31;94.80;101728.16;6297255;28;20072;-74
2021/01/14 08:21:28;;;;;;;23.33;8.32;;;;;;;0.28;95.29;101734.19;6297192;28;20060;-72
2021/01/14 08:24:37;;;;;;;23.85;8.52;;;;;;;0.24;95.55;101729.88;6297734;28;20051;-72
2021/01/14 08:27:39;;;;;;;27.70;9.65;;;;;;;0.24;96.12;101740.19;6297123;28;20056;-74
2021/01/14 08:30:40;;;;;;;17.88;7.43;;;;;;;0.28;96.62;101734.19;6297173;28;20051;-72
2021/01/14 08:33:46;;;;;;;19.45;8.18;;;;;;;0.45;94.36;101747.19;6292748;28;20125;-76
2021/01/14 08:36:50;;;;;;;16.52;7.43;;;;;;;0.38;94.85;101743.72;6295933;28;20409;-74
2021/01/14 08:39:53;;;;;;;20.92;8.50;;;;;;;0.36;94.75;101748.00;6296787;28;20055;-73
2021/01/14 08:43:02;;;;;;;15.88;7.65;;;;;;;0.41;95.11;101750.59;6293498;28;20094;-73
2021/01/14 08:46:03;;;;;;;16.77;7.85;;;;;;;0.47;94.74;101754.09;6296445;28;20055;-74
2021/01/14 08:49:11;;;;;;;15.75;6.82;;;;;;;0.52;94.15;101755.84;6295955;28;20417;-73
2021/01/14 08:52:15;;;;;;;18.83;7.47;;;;;;;0.39;94.50;101758.38;6290974;28;20393;-75
2021/01/14 08:55:15;;;;;;;19.73;7.18;;;;;;;0.44;94.30;101771.31;6288384;28;20056;-74
2021/01/14 08:58:19;;;;;;;22.75;8.30;;;;;;;0.39;94.33;101768.72;6287803;28;20041;-75
2021/01/14 09:01:22;;;;;;;20.33;7.32;;;;;;;0.46;94.46;101773.06;6296480;28;20055;-76
2021/01/14 09:04:26;;;;;;;16.05;7.35;;;;;;;0.39;95.05;101776.47;6288110;28;20063;-72
2021/01/14 09:07:27;;;;;;;19.88;8.05;;;;;;;0.43;94.79;101783.38;6296112;28;20501;-73
2021/01/14 09:10:39;;;;;;;20.00;7.82;;;;;;;0.54;93.63;101778.25;6296206;28;20060;-75
2021/01/14 09:13:39;;;;;;;14.18;6.35;;;;;;;0.64;92.47;101785.22;6296415;28;20048;-75
2021/01/14 09:16:42;;;;;;;15.07;6.78;;;;;;;0.50;93.39;101787.75;6295804;28;20083;-73
2021/01/14 09:19:53;;;;;;;16.85;7.10;;;;;;;0.61;93.27;101800.72;6296120;28;20079;-73
2021/01/14 09:22:58;;;;;;;15.80;7.07;;;;;;;0.55;93.00;101802.41;6296237;28;20055;-74
2021/01/14 09:26:00;;;;;;;22.15;7.20;;;;;;;0.52;93.49;101804.97;6295889;28;20497;-74
2021/01/14 09:29:01;;;;;;;24.45;7.93;;;;;;;0.55;92.81;101805.88;6295794;28;20705;-72
2021/01/14 09:32:11;;;;;;;15.82;7.68;;;;;;;0.54;94.07;101811.00;6296043;28;20051;-74
2021/01/14 09:35:13;;;;;;;18.00;8.25;;;;;;;0.52;93.11;101808.44;6296110;28;20413;-74
2021/01/14 09:38:15;;;;;;;18.33;7.05;;;;;;;0.69;93.28;101811.09;6295472;28;20052;-71
2021/01/14 09:41:23;;;;;;;21.45;7.32;;;;;;;0.53;91.88;101819.63;6295734;28;20110;-72
2021/01/14 09:44:29;;;;;;;17.15;7.28;;;;;;;0.57;93.46;101832.59;6295967;28;20075;-74
2021/01/14 09:47:30;;;;;;;20.25;7.88;;;;;;;0.58;93.33;101830.84;6295560;28;20101;-72
2021/01/14 09:50:32;;;;;;;16.63;7.55;;;;;;;0.66;93.42;101830.03;6295260;28;20052;-71
2021/01/14 09:53:34;;;;;;;13.43;6.63;;;;;;;0.64;92.83;101846.44;6296209;28;20052;-76
2021/01/14 09:56:38;;;;;;;20.73;7.32;;;;;;;0.58;94.01;101846.38;6295335;28;20382;-76
2021/01/14 09:59:40;;;;;;;18.48;7.68;;;;;;;0.55;94.06;101849.84;6295412;28;20094;-74
2021/01/14 10:02:43;;;;;;;20.55;7.53;;;;;;;0.66;93.23;101847.28;6300081;28;20409;-75
2021/01/14 10:05:47;;;;;;;20.73;7.30;;;;;;;0.60;93.71;101853.31;6301040;28;20121;-74
2021/01/14 10:08:50;;;;;;;19.30;7.28;;;;;;;0.66;94.16;101853.31;6299394;28;20424;-75
2021/01/14 10:11:51;;;;;;;20.13;7.50;;;;;;;0.72;93.31;101850.75;6300857;28;20045;-74
2021/01/14 10:15:07;;;;;;;29.98;8.15;;;;;;;0.74;93.92;101855.97;6300497;28;20090;-73
2021/01/14 10:18:22;;;;;;;15.73;7.20;;;;;;;0.78;94.47;101851.69;6300303;28;20048;-74
2021/01/14 10:21:24;;;;;;;22.38;6.72;;;;;;;0.83;93.98;101857.72;6300116;28;20048;-75
2021/01/14 10:24:27;;;;;;;17.77;7.50;;;;;;;0.80;94.45;101858.56;6300578;28;20101;-76
2021/01/14 10:27:28;;;;;;;23.45;7.40;;;;;;;0.84;94.68;101857.72;6299997;28;20051;-74
2021/01/14 10:30:31;;;;;;;16.85;7.18;;;;;;;0.86;93.73;101852.56;6300146;28;20048;-75
2021/01/14 10:33:31;;;;;;;12.60;6.75;;;;;;;0.94;93.87;101859.50;6294565;28;20412;-75
2021/01/14 10:36:49;;;;;;;13.98;6.20;;;;;;;0.94;93.15;101864.66;6292056;28;20051;-74
2021/01/14 10:39:53;;;;;;;17.75;7.53;;;;;;;0.99;92.64;101867.28;6284253;28;20045;-76
2021/01/14 10:42:54;;;;;;;16.70;6.53;;;;;;;0.99;92.33;101860.38;6286800;28;20455;-75
2021/01/14 10:45:55;;;;;;;16.38;6.47;;;;;;;1.02;92.13;101859.53;6293670;28;20052;-75
2021/01/14 10:48:55;;;;;;;19.83;6.50;;;;;;;1.07;93.04;101869.91;6298903;28;20432;-76
2021/01/14 10:52:04;;;;;;;23.70;7.07;;;;;;;1.11;93.33;101861.28;6298830;28;20044;-76
2021/01/14 10:55:06;;;;;;;20.88;8.55;;;;;;;1.16;93.15;101872.53;6294714;28;20044;-76
2021/01/14 10:58:08;;;;;;;17.60;6.45;;;;;;;1.30;92.18;101872.56;6294020;28;20047;-77
2021/01/14 11:01:16;;;;;;;13.30;6.63;;;;;;;1.19;91.37;101873.41;6291037;28;20067;-78
2021/01/14 11:04:17;;;;;;;12.63;6.37;;;;;;;1.22;91.38;101872.53;6299542;28;20048;-75
2021/01/14 11:07:19;;;;;;;18.80;7.60;;;;;;;1.22;91.48;101875.97;6299002;28;20802;-76
2021/01/14 11:10:25;;;;;;;17.23;6.78;;;;;;;1.27;92.93;101876.00;6299256;28;20044;-77
2021/01/14 11:13:36;;;;;;;15.50;7.85;;;;;;;1.29;92.92;101879.47;6298758;28;20049;-76
2021/01/14 11:16:37;;;;;;;16.05;8.45;;;;;;;1.24;93.05;101876.88;6298534;28;20044;-74
2021/01/14 11:19:38;;;;;;;13.35;6.95;;;;;;;1.26;93.30;101876.88;6298709;28;20060;-76
2021/01/14 11:22:38;;;;;;;11.70;6.60;;;;;;;1.30;91.96;101878.59;6294990;28;20044;-76
2021/01/14 11:25:40;;;;;;;17.73;7.07;;;;;;;1.31;92.30;101882.06;6276873;28;20138;-75
2021/01/14 11:28:41;;;;;;;14.57;7.25;;;;;;;1.39;93.92;101880.34;6273145;28;20106;-76
2021/01/14 11:31:42;;;;;;;16.48;7.90;;;;;;;1.42;94.19;101889.00;6274201;28;20101;-74
2021/01/14 11:34:43;;;;;;;19.27;7.93;;;;;;;1.43;93.60;101888.16;6273504;28;20056;-76
2021/01/14 11:37:44;;;;;;;16.73;7.90;;;;;;;1.45;92.90;101886.44;6286885;28;20127;-75
2021/01/14 11:40:47;;;;;;;19.63;6.95;;;;;;;1.46;93.47;101877.81;6298335;28;20071;-76
2021/01/14 11:43:48;;;;;;;13.68;7.57;;;;;;;1.48;93.69;101885.56;6298272;28;20053;-77
2021/01/14 11:46:49;;;;;;;18.83;7.30;;;;;;;1.47;92.89;101879.53;6298257;28;20149;-74
2021/01/14 11:49:50;;;;;;;22.02;7.00;;;;;;;1.49;92.59;101884.69;6298107;28;20048;-76
2021/01/14 11:52:51;;;;;;;12.35;6.30;;;;;;;1.53;91.80;101878.66;6297779;28;20045;-75
2021/01/14 11:55:52;;;;;;;17.23;7.30;;;;;;;1.47;90.06;101876.06;6298277;28;20049;-74
2021/01/14 11:58:53;;;;;;;16.58;7.30;;;;;;;1.46;89.99;101882.13;6290557;28;20486;-74
2021/01/14 12:01:56;;;;;;;17.65;7.43;;;;;;;1.57;91.01;101884.72;6298029;28;20049;-74
2021/01/14 12:04:56;;;;;;;20.77;9.93;;;;;;;1.52;90.37;101880.41;6297008;28;20053;-75
2021/01/14 12:07:57;;;;;;;17.33;8.13;;;;;;;1.50;91.66;101881.28;6296853;28;20059;-75
2021/01/14 12:10:59;;;;;;;15.82;7.25;;;;;;;1.59;92.22;101872.63;6297608;28;20056;-75
2021/01/14 12:14:00;;;;;;;13.73;7.30;;;;;;;1.62;90.06;101878.69;6296860;28;20048;-74
2021/01/14 12:17:01;;;;;;;16.40;7.70;;;;;;;1.66;89.49;101879.56;6296681;28;20087;-74
2021/01/14 12:20:02;;;;;;;14.80;6.72;;;;;;;1.61;90.09;101876.09;6297535;28;20071;-76
2021/01/14 12:23:03;;;;;;;15.73;6.80;;;;;;;1.65;91.41;101881.28;6296799;28;20071;-76
2021/01/14 12:26:05;;;;;;;13.77;6.93;;;;;;;1.68;91.76;101878.72;6297137;28;20053;-72
2021/01/14 12:29:06;;;;;;;18.02;6.75;;;;;;;1.72;92.39;101882.16;6289119;28;20052;-74
2021/01/14 12:32:07;;;;;;;11.77;6.13;;;;;;;1.71;90.57;101883.88;6282526;28;20124;-74
2021/01/14 12:35:09;;;;;;;17.60;6.10;;;;;;;1.70;90.93;101886.47;6279382;28;20494;-73
2021/01/14 12:38:10;;;;;;;15.80;6.90;;;;;;;1.68;89.64;101886.47;6292900;28;20049;-74
2021/01/14 12:41:11;;;;;;;16.35;6.68;;;;;;;1.70;89.95;101883.88;6296543;28;20492;-74
2021/01/14 12:44:12;;;;;;;19.88;7.45;;;;;;;1.60;90.75;101882.16;6297197;28;20044;-73
2021/01/14 12:47:13;;;;;;;15.43;6.80;;;;;;;1.67;90.95;101882.13;6296585;28;20479;-74
2021/01/14 12:50:15;;;;;;;17.30;6.47;;;;;;;1.72;89.24;101874.38;6297160;28;20448;-75
2021/01/14 12:53:16;;;;;;;16.42;6.90;;;;;;;1.70;89.96;101887.34;6296921;28;20118;-76
2021/01/14 12:56:18;;;;;;;13.55;6.82;;;;;;;1.73;91.37;101884.75;6296967;28;20044;-75
2021/01/14 12:59:19;;;;;;;20.63;6.78;;;;;;;1.82;88.42;101876.13;6290995;28;20045;-75
2021/01/14 13:02:20;;;;;;;15.65;6.40;;;;;;;1.72;88.47;101877.81;6271497;28;20075;-75
2021/01/14 13:05:21;;;;;;;15.93;6.03;;;;;;;1.72;90.14;101880.41;6272029;28;20049;-74
2021/01/14 13:08:21;;;;;;;15.57;5.88;;;;;;;1.69;89.76;101879.56;6271383;28;20056;-75
2021/01/14 13:11:24;;;;;;;11.95;6.40;;;;;;;1.76;88.89;101874.38;6272124;28;20073;-74
2021/01/14 13:14:26;;;;;;;18.83;7.40;;;;;;;1.75;88.64;101861.44;6293754;28;20040;-73
2021/01/14 13:17:27;;;;;;;15.13;6.00;;;;;;;1.76;88.63;101864.00;6295945;28;20056;-73
2021/01/14 13:20:28;;;;;;;14.25;6.50;;;;;;;1.77;88.40;101858.00;6295510;28;20040;-74
2021/01/14 13:23:29;;;;;;;13.75;5.72;;;;;;;1.80;86.90;101859.69;6296498;28;20059;-73
2021/01/14 13:26:31;;;;;;;13.05;5.85;;;;;;;1.93;86.60;101864.03;6295270;28;20044;-73
2021/01/14 13:29:32;;;;;;;13.18;5.60;;;;;;;1.86;87.61;101857.09;6295345;28;20055;-75
2021/01/14 13:32:33;;;;;;;17.95;7.32;;;;;;;1.73;88.90;101877.00;6296214;28;20099;-74
2021/01/14 13:35:34;;;;;;;23.25;7.60;;;;;;;1.81;90.22;101868.34;6295704;28;20067;-75
2021/01/14 13:38:43;;;;;;;19.25;8.07;;;;;;;1.82;88.97;101864.88;6294256;28;20044;-75
2021/01/14 13:41:49;;;;;;;19.08;6.80;;;;;;;1.79;87.03;101883.91;6295579;28;20049;-75
2021/01/14 13:44:50;;;;;;;16.38;6.97;;;;;;;1.86;87.54;101883.03;6295444;28;20102;-76
2021/01/14 13:47:51;;;;;;;15.68;7.22;;;;;;;1.78;88.20;101883.03;6294990;28;20048;-74
2021/01/14 13:50:52;;;;;;;15.25;6.63;;;;;;;1.72;87.93;101883.00;6295302;28;20429;-76
2021/01/14 13:53:53;;;;;;;18.17;8.07;;;;;;;1.71;88.67;101878.69;6296054;28;20051;-76
2021/01/14 13:56:57;;;;;;;18.08;6.90;;;;;;;1.71;87.89;101883.00;6294967;28;20422;-76
2021/01/14 13:59:58;;;;;;;19.73;7.18;;;;;;;1.69;89.16;101874.38;6295039;28;20140;-75
2021/01/14 14:02:59;;;;;;;15.15;7.00;;;;;;;1.64;87.97;101881.28;6295515;28;20135;-75
2021/01/14 14:06:00;;;;;;;14.55;6.45;;;;;;;1.68;88.13;101883.00;6295378;28;20052;-76
2021/01/14 14:09:01;;;;;;;15.40;7.90;;;;;;;1.70;87.36;101889.06;6294755;28;20052;-76
2021/01/14 14:12:03;;;;;;;18.20;6.97;;;;;;;1.69;87.24;101889.94;6295497;28;20052;-77
2021/01/14 14:15:06;;;;;;;18.52;8.35;;;;;;;1.67;87.53;101889.91;6295534;28;20061;-76